Malolo — ABC1234 — position and weather

sailwx.info

Track history (hours):
 
Tides and Currents Weather Stations Pressure Air Temp Water Temp Dewpoint Dewpoint Depression Visibility Wind Speed Wind Dir Waves Ship Positions

Malolo

Last reported at 2017-Aug-10 21:57 UTC. Time now 2017-Aug-18 14:36 UTC.
Position N 33°58' W 118°29'.

Length 14 m.

Type: Sailing vessel. MMSI: 338047815.

Date/timePositionNaut miles runAvg speedWind from/ knotsBaromVisibWave heightAir tempDewpointWater temp
2017-Aug-10 21:57N 33°58' W 118°29'5 0.2
2017-Aug-09 22:45N 33°53' W 118°26'2 6.2
2017-Aug-09 22:23N 33°51' W 118°26'4 5.7
2017-Aug-09 21:37N 33°47' W 118°26'3 5.5
2017-Aug-09 21:09N 33°44' W 118°25'1 5.1
2017-Aug-09 20:58N 33°43' W 118°25'5 5.5
2017-Aug-09 20:00N 33°39' W 118°22'3 5.2
2017-Aug-09 19:30N 33°36' W 118°21'10 5.1
2017-Aug-09 17:30N 33°26' W 118°20'3 5.4
2017-Aug-09 17:00N 33°23' W 118°19'  
Track history (hours):
 
Tides and Currents Weather Stations Pressure Air Temp Water Temp Dewpoint Dewpoint Depression Visibility Wind Speed Wind Dir Waves Ship Positions

Malolo

Last reported at 2017-Aug-10 21:57 UTC. Time now 2017-Aug-18 14:36 UTC.
Position N 33°58' W 118°29'.

Length 14 m.

Type: Sailing vessel. MMSI: 338047815.

Date/timePositionNaut miles runAvg speedWind from/ knotsBaromVisibWave heightAir tempDewpointWater temp
2017-Aug-10 21:57N 33°58' W 118°29'5 0.2
2017-Aug-09 22:45N 33°53' W 118°26'2 6.2
2017-Aug-09 22:23N 33°51' W 118°26'4 5.7
2017-Aug-09 21:37N 33°47' W 118°26'3 5.5
2017-Aug-09 21:09N 33°44' W 118°25'1 5.1
2017-Aug-09 20:58N 33°43' W 118°25'5 5.5
2017-Aug-09 20:00N 33°39' W 118°22'3 5.2
2017-Aug-09 19:30N 33°36' W 118°21'10 5.1
2017-Aug-09 17:30N 33°26' W 118°20'3 5.4
2017-Aug-09 17:00N 33°23' W 118°19'  

Dump ship's entire track history